Time;durP1;ratioP1;P1;durP2;ratioP2;P2;SDS_P1;SDS_P2;PMS_P1;PMS_P2;Temp;Humidity;BMP_temperature;BMP_pressure;BME280_temperature;BME280_humidity;BME280_pressure;Samples;Min_cycle;Max_cycle;Signal;HPM_P1;HPM_P2
2022/05/19 00:00:01;;;;;;;5.92;2.17;;;;;;;7.20;36.75;101880.80;1712241;82;21048;-77
2022/05/19 00:02:27;;;;;;;7.12;2.72;;;;;;;7.13;36.86;101874.67;1712302;83;21065;-77
2022/05/19 00:04:52;;;;;;;6.00;2.37;;;;;;;7.10;36.93;101873.75;1711637;83;20914;-78
2022/05/19 00:07:19;;;;;;;5.40;2.80;;;;;;;7.07;37.00;101873.27;1712693;83;20901;-77
2022/05/19 00:09:45;;;;;;;5.12;2.60;;;;;;;7.04;37.06;101870.64;1712398;83;21072;-76
2022/05/19 00:12:18;;;;;;;7.77;3.10;;;;;;;7.02;37.18;101870.17;1710444;83;20997;-76
2022/05/19 00:14:44;;;;;;;6.83;2.45;;;;;;;6.97;37.20;101866.22;1687564;84;21059;-77
2022/05/19 00:17:10;;;;;;;7.42;2.58;;;;;;;6.88;37.23;101875.91;1697197;83;21036;-77
2022/05/19 00:19:37;;;;;;;6.90;2.77;;;;;;;6.83;37.35;101873.67;1712399;83;21056;-77
2022/05/19 00:22:04;;;;;;;5.85;2.72;;;;;;;6.82;37.46;101874.51;1712730;83;21130;-77
2022/05/19 00:24:30;;;;;;;4.85;3.45;;;;;;;6.84;37.50;101874.53;1705311;83;21045;-77
2022/05/19 00:26:57;;;;;;;5.00;3.10;;;;;;;6.82;37.53;101871.07;1712379;83;21115;-76
2022/05/19 00:29:23;;;;;;;4.12;2.70;;;;;;;6.79;37.59;101866.73;1708046;83;20937;-76
2022/05/19 00:31:49;;;;;;;7.00;2.40;;;;;;;6.75;37.64;101867.96;1714093;83;20965;-77
2022/05/19 00:34:16;;;;;;;3.53;2.50;;;;;;;6.72;37.73;101867.91;1714232;83;20862;-76
2022/05/19 00:36:42;;;;;;;;;;;;;;;6.69;37.79;101869.12;1716504;83;20910;-76
2022/05/19 00:39:10;;;;;;;7.05;2.45;;;;;;;6.67;38.36;101866.94;1714238;83;20156;-76
2022/05/19 00:41:43;;;;;;;6.30;3.02;;;;;;;6.67;37.91;101866.94;1712540;83;21128;-77
2022/05/19 00:44:11;;;;;;;8.80;3.08;;;;;;;6.66;37.99;101867.78;1706693;83;21136;-76
2022/05/19 00:46:53;;;;;;;4.67;2.95;;;;;;;6.63;38.02;101860.45;1713387;83;20986;-76
2022/05/19 00:49:34;;;;;;;7.62;2.40;;;;;;;6.60;38.07;101864.25;1714241;83;20898;-76
2022/05/19 00:52:12;;;;;;;4.50;2.67;;;;;;;6.56;38.11;101860.30;1713335;83;20913;-76
2022/05/19 00:54:46;;;;;;;7.45;2.42;;;;;;;6.54;38.19;101861.55;1685528;84;20917;-77
2022/05/19 00:57:25;;;;;;;8.08;2.83;;;;;;;6.52;38.28;101861.07;1685497;84;20971;-76
2022/05/19 00:59:58;;;;;;;6.00;2.65;;;;;;;6.51;38.30;101858.05;1694777;83;20965;-76
2022/05/19 01:02:33;;;;;;;3.98;2.92;;;;;;;6.50;38.39;101856.31;1711154;83;21015;-76
2022/05/19 01:05:07;;;;;;;3.70;2.85;;;;;;;6.47;38.42;101853.69;1714262;83;20941;-75
2022/05/19 01:07:56;;;;;;;3.42;2.40;;;;;;;6.44;38.52;101851.05;1694120;83;20889;-76
2022/05/19 01:10:22;;;;;;;6.00;2.62;;;;;;;6.42;38.59;101847.17;1702056;83;20917;-76
2022/05/19 01:12:50;;;;;;;7.58;2.80;;;;;;;6.40;38.61;101846.69;1707367;83;20956;-76
2022/05/19 01:15:18;;;;;;;7.05;3.15;;;;;;;6.36;38.69;101844.47;1690964;84;20970;-76
2022/05/19 01:17:44;;;;;;;3.85;2.40;;;;;;;6.35;38.77;101838.88;1697346;84;21072;-76
2022/05/19 01:20:18;;;;;;;6.45;2.92;;;;;;;6.34;38.85;101836.28;1703291;83;28174;-76
2022/05/19 01:23:11;;;;;;;5.28;2.60;;;;;;;6.33;38.93;101839.27;1700086;84;21403;-76
2022/05/19 01:26:07;;;;;;;4.78;2.92;;;;;;;6.31;38.95;101839.23;1683709;85;21112;-76
2022/05/19 01:28:44;;;;;;;5.95;2.87;;;;;;;6.31;39.04;101839.66;1687506;83;21033;-77
2022/05/19 01:31:38;;;;;;;7.67;3.45;;;;;;;6.33;39.12;101831.98;1711882;83;21053;-75
2022/05/19 01:34:12;;;;;;;6.40;2.70;;;;;;;6.34;39.13;101829.44;1711896;83;21044;-77
2022/05/19 01:36:39;;;;;;;6.25;2.92;;;;;;;6.28;39.17;101822.47;1711029;83;26685;-77
2022/05/19 01:39:12;;;;;;;6.80;2.83;;;;;;;6.23;39.21;101825.81;1712647;83;21071;-77
2022/05/19 01:42:12;;;;;;;5.75;2.40;;;;;;;6.18;39.26;101827.00;1712676;83;20989;-77
2022/05/19 01:44:56;;;;;;;4.80;2.87;;;;;;;6.12;39.30;101824.72;1712693;83;21044;-77
2022/05/19 01:47:48;;;;;;;5.40;2.80;;;;;;;6.07;39.42;101818.20;1708542;83;21056;-77
2022/05/19 01:50:31;;;;;;;6.90;3.45;;;;;;;6.05;39.52;101820.28;1712112;83;21036;-77
2022/05/19 01:53:18;;;;;;;8.65;2.75;;;;;;;6.03;39.56;101828.36;1704667;83;21104;-76
2022/05/19 01:56:04;;;;;;;4.15;2.77;;;;;;;6.02;39.65;101824.06;1683607;84;21032;-77
2022/05/19 01:58:36;;;;;;;6.33;3.30;;;;;;;6.01;39.72;101818.06;1691747;82;21095;-76
2022/05/19 02:01:05;;;;;;;9.85;3.37;;;;;;;6.00;39.75;101820.59;1689656;84;21122;-76
2022/05/19 02:04:04;;;;;;;4.85;3.17;;;;;;;5.97;39.82;101823.55;1679735;85;21039;-76
2022/05/19 02:06:50;;;;;;;6.37;3.30;;;;;;;5.97;39.89;101818.41;1679275;84;21069;-77
2022/05/19 02:09:22;;;;;;;5.87;2.83;;;;;;;5.93;39.93;101819.17;1674583;85;21064;-77
2022/05/19 02:11:54;;;;;;;11.88;2.70;;;;;;;5.90;39.99;101816.54;1678298;85;21032;-77
2022/05/19 02:14:27;;;;;;;7.33;2.80;;;;;;;5.86;40.07;101822.81;1681691;85;20897;-76
2022/05/19 02:16:55;;;;;;;3.15;2.52;;;;;;;5.83;40.17;101820.18;1681329;84;20936;-76
2022/05/19 02:19:26;;;;;;;5.40;2.27;;;;;;;5.83;40.20;101819.77;1679155;84;20928;-77
2022/05/19 02:21:54;;;;;;;6.15;2.83;;;;;;;5.80;40.25;101815.84;1699550;84;20881;-77
2022/05/19 02:24:25;;;;;;;7.55;3.00;;;;;;;5.78;40.29;101818.80;1678438;84;20913;-77
2022/05/19 02:26:51;;;;;;;4.30;2.77;;;;;;;5.74;40.33;101817.41;1699508;83;20960;-77
2022/05/19 02:29:23;;;;;;;5.30;2.87;;;;;;;5.70;40.46;101812.65;1699135;84;21448;-77
2022/05/19 02:31:51;;;;;;;7.62;2.90;;;;;;;5.71;40.54;101810.95;1714635;83;20906;-77
2022/05/19 02:34:17;;;;;;;4.62;2.80;;;;;;;5.67;40.58;101810.02;1699506;83;20874;-76
2022/05/19 02:36:44;;;;;;;6.87;3.05;;;;;;;5.62;40.67;101807.34;1714075;83;21469;-77
2022/05/19 02:39:10;;;;;;;;;;;;;;;5.59;40.73;101808.55;1702093;84;20896;-77
2022/05/19 02:41:37;;;;;;;6.47;3.33;;;;;;;5.58;41.37;101807.23;1728993;82;20229;-77
2022/05/19 02:44:04;;;;;;;6.72;2.98;;;;;;;5.57;40.82;101812.78;1700990;83;20948;-77
2022/05/19 02:46:30;;;;;;;3.50;2.45;;;;;;;5.57;40.89;101806.36;1713626;83;20962;-77
2022/05/19 02:48:59;;;;;;;4.20;2.83;;;;;;;5.56;40.93;101808.89;1714473;83;20901;-78
2022/05/19 02:51:25;;;;;;;5.37;3.08;;;;;;;5.53;40.97;101815.23;1714091;83;20890;-77
2022/05/19 02:53:51;;;;;;;9.63;3.27;;;;;;;5.48;41.07;101811.69;1714131;83;20969;-77
2022/05/19 02:56:17;;;;;;;10.00;3.07;;;;;;;5.46;41.14;101814.22;1713768;83;20862;-77
2022/05/19 02:58:43;;;;;;;9.63;3.33;;;;;;;5.46;41.21;101811.66;1709565;83;20842;-78
2022/05/19 03:01:09;;;;;;;4.90;3.30;;;;;;;5.42;41.26;101806.00;1712505;83;21022;-77
2022/05/19 03:03:35;;;;;;;10.07;3.57;;;;;;;5.40;41.31;101810.22;1712876;83;20948;-77
2022/05/19 03:06:01;;;;;;;5.00;3.37;;;;;;;5.38;41.41;101809.73;1712413;83;21008;-77
2022/05/19 03:08:27;;;;;;;6.55;3.30;;;;;;;5.37;41.49;101805.02;1709975;83;21099;-77
2022/05/19 03:10:53;;;;;;;10.07;4.13;;;;;;;5.38;41.56;101799.05;1704922;83;21301;-77
2022/05/19 03:13:22;;;;;;;;;;;;;;;5.40;41.67;101802.53;1707085;83;21045;-78
2022/05/19 03:15:49;;;;;;;6.42;2.85;;;;;;;5.45;42.33;101803.92;1687132;84;20153;-77
2022/05/19 03:18:16;;;;;;;9.25;3.65;;;;;;;5.47;41.76;101798.00;1696680;83;21115;-75
2022/05/19 03:20:42;;;;;;;6.12;3.55;;;;;;;5.53;41.86;101795.58;1712957;83;21330;-76
2022/05/19 03:23:08;;;;;;;9.58;4.28;;;;;;;5.57;41.92;101797.80;1697583;84;21044;-76
2022/05/19 03:25:38;;;;;;;7.37;3.55;;;;;;;5.62;42.00;101795.80;1712201;83;21112;-77
2022/05/19 03:28:04;;;;;;;5.90;4.25;;;;;;;5.71;42.10;101791.70;1712389;83;21151;-77
2022/05/19 03:30:30;;;;;;;11.10;3.98;;;;;;;5.77;42.14;101791.39;1712254;83;21048;-76
2022/05/19 03:32:57;;;;;;;12.63;4.47;;;;;;;5.80;42.15;101791.47;1712233;83;21103;-77
2022/05/19 03:35:23;;;;;;;11.48;5.55;;;;;;;5.85;42.28;101792.43;1701170;83;21111;-77
2022/05/19 03:37:49;;;;;;;6.55;3.95;;;;;;;5.92;42.38;101795.63;1699473;83;21080;-77
2022/05/19 03:40:17;;;;;;;7.00;4.50;;;;;;;6.00;42.46;101792.36;1712585;83;21060;-77
2022/05/19 03:42:43;;;;;;;9.18;5.33;;;;;;;6.13;42.50;101804.62;1712572;83;21765;-77
2022/05/19 03:45:13;;;;;;;11.73;6.40;;;;;;;6.21;42.61;101808.22;1712302;83;21403;-77
2022/05/19 03:47:39;;;;;;;10.50;7.27;;;;;;;6.33;42.66;101805.00;1712044;83;20884;-77
2022/05/19 03:50:08;;;;;;;18.12;6.50;;;;;;;6.45;42.73;101806.13;1710857;83;21425;-77
2022/05/19 03:52:38;;;;;;;14.28;6.72;;;;;;;6.56;42.73;101804.62;1693689;83;21071;-77
2022/05/19 03:55:05;;;;;;;11.90;6.05;;;;;;;6.69;42.83;101810.01;1713783;83;20964;-78
2022/05/19 03:57:32;;;;;;;8.35;5.37;;;;;;;6.79;42.85;101806.33;1714293;83;20949;-77
2022/05/19 03:59:58;;;;;;;11.20;5.47;;;;;;;6.87;42.98;101807.75;1712329;82;20889;-77
2022/05/19 04:02:24;;;;;;;17.30;8.57;;;;;;;6.97;43.07;101805.38;1710360;82;20882;-77
2022/05/19 04:04:51;;;;;;;16.70;7.72;;;;;;;7.12;43.14;101801.34;1712153;83;20929;-77
2022/05/19 04:07:17;;;;;;;15.13;8.35;;;;;;;7.21;43.13;101801.08;1701975;82;20927;-77
2022/05/19 04:09:43;;;;;;;15.33;7.50;;;;;;;7.26;43.22;101802.02;1702175;82;21637;-77
2022/05/19 04:12:10;;;;;;;15.00;7.90;;;;;;;7.36;43.34;101807.28;1704670;82;20929;-78
2022/05/19 04:14:36;;;;;;;13.48;6.58;;;;;;;7.46;43.37;101798.45;1696856;82;20929;-77
2022/05/19 04:17:04;;;;;;;16.45;5.15;;;;;;;7.55;43.44;101803.75;1689630;83;20957;-76
2022/05/19 04:19:31;;;;;;;9.13;4.37;;;;;;;7.61;43.42;101796.13;1709872;83;20957;-75
2022/05/19 04:21:57;;;;;;;12.37;4.40;;;;;;;7.64;43.50;101793.59;1712428;83;20902;-75
2022/05/19 04:24:23;;;;;;;21.90;4.80;;;;;;;7.70;43.57;101799.25;1709185;83;20917;-76
2022/05/19 04:26:49;;;;;;;14.87;4.67;;;;;;;7.75;43.61;101809.20;1713825;83;20937;-76
2022/05/19 04:29:16;;;;;;;16.27;4.92;;;;;;;7.84;43.71;101811.01;1694551;82;20914;-77
2022/05/19 04:31:43;;;;;;;15.60;5.62;;;;;;;7.93;43.74;101808.14;1691025;83;20937;-75
2022/05/19 04:34:09;;;;;;;36.55;6.12;;;;;;;8.03;43.78;101804.41;1711897;82;21697;-75
2022/05/19 04:36:36;;;;;;;17.20;5.28;;;;;;;8.10;43.84;101800.65;1710361;82;20921;-75
2022/05/19 04:39:03;;;;;;;14.97;5.20;;;;;;;8.19;43.90;101802.48;1709010;82;20898;-75
2022/05/19 04:41:29;;;;;;;29.00;5.67;;;;;;;8.28;43.96;101806.05;1698035;82;20933;-75
2022/05/19 04:43:56;;;;;;;7.33;4.17;;;;;;;8.38;43.97;101794.55;1709785;82;20961;-75
2022/05/19 04:46:22;;;;;;;10.03;4.60;;;;;;;8.49;44.03;101795.13;1714039;83;20931;-76
2022/05/19 04:48:48;;;;;;;8.27;4.40;;;;;;;8.62;44.07;101802.16;1714749;82;20849;-76
2022/05/19 04:51:14;;;;;;;12.53;4.33;;;;;;;8.75;44.10;101802.29;1701661;81;20929;-76
2022/05/19 04:53:40;;;;;;;5.93;4.50;;;;;;;8.88;44.15;101804.11;1698523;82;20925;-76
2022/05/19 04:56:06;;;;;;;8.47;3.77;;;;;;;9.02;44.20;101803.83;1711901;83;20914;-76
2022/05/19 04:58:32;;;;;;;12.77;3.93;;;;;;;9.17;44.27;101802.67;1702502;82;21629;-76
2022/05/19 05:01:06;;;;;;;11.33;4.33;;;;;;;9.36;44.34;101801.08;1691696;82;20992;-76
2022/05/19 05:03:33;;;;;;;6.80;4.57;;;;;;;9.63;44.37;101802.59;1680355;84;20913;-76
2022/05/19 05:05:58;;;;;;;6.28;3.77;;;;;;;9.99;44.48;101801.48;1700406;82;21138;-76
2022/05/19 05:08:24;;;;;;;6.03;3.73;;;;;;;10.54;44.60;101802.59;1699204;82;21480;-75
2022/05/19 05:10:51;;;;;;;4.47;3.97;;;;;;;11.21;44.76;101798.39;1708514;82;20953;-76
2022/05/19 05:13:17;;;;;;;7.93;4.00;;;;;;;12.03;44.86;101800.42;1697996;83;20904;-76
2022/05/19 05:15:44;;;;;;;6.92;4.35;;;;;;;12.93;45.00;101804.73;1688080;83;21571;-76
2022/05/19 05:18:11;;;;;;;7.67;3.80;;;;;;;13.85;44.97;101796.55;1692708;83;20949;-76
2022/05/19 05:20:41;;;;;;;6.33;4.15;;;;;;;14.75;44.90;101797.16;1708857;83;21064;-74
2022/05/19 05:23:10;;;;;;;9.83;3.80;;;;;;;15.58;44.81;101792.80;1713149;83;21024;-73
2022/05/19 05:25:36;;;;;;;5.20;3.47;;;;;;;16.40;44.76;101791.99;1708636;83;20932;-74
2022/05/19 05:28:03;;;;;;;12.65;4.03;;;;;;;17.17;44.58;101794.55;1709384;83;25152;-76
2022/05/19 05:30:30;;;;;;;8.65;3.60;;;;;;;17.84;44.62;101798.06;1711395;83;20965;-75
2022/05/19 05:33:07;;;;;;;9.78;3.37;;;;;;;18.53;44.35;101798.68;1706605;83;20925;-73
2022/05/19 05:35:34;;;;;;;4.87;3.17;;;;;;;19.10;44.17;101801.26;1700787;83;21346;-75
2022/05/19 05:38:02;;;;;;;5.78;3.00;;;;;;;19.77;44.00;101801.58;1696714;83;20877;-72
2022/05/19 05:40:28;;;;;;;5.70;2.90;;;;;;;20.37;43.75;101805.48;1698990;84;20893;-75
2022/05/19 05:42:54;;;;;;;;;;;;;;;20.56;43.39;101806.13;1701300;84;21295;-69
2022/05/19 05:45:40;;;;;;;6.20;2.70;;;;;;;20.58;41.92;101801.67;1695450;83;20364;-73
2022/05/19 05:48:08;;;;;;;4.47;3.08;;;;;;;20.60;42.86;101801.16;1679499;84;21004;-76
2022/05/19 05:50:34;;;;;;;3.67;2.75;;;;;;;20.66;42.63;101806.18;1707181;83;20917;-72
2022/05/19 05:53:00;;;;;;;5.17;2.77;;;;;;;20.77;42.42;101810.10;1694388;84;21548;-72
2022/05/19 05:55:26;;;;;;;12.43;4.20;;;;;;;20.81;42.18;101806.86;1701352;83;21708;-75
2022/05/19 05:57:52;;;;;;;11.97;3.70;;;;;;;20.93;42.09;101802.89;1700690;83;20901;-77
2022/05/19 06:00:20;;;;;;;;;;;;;;;21.12;41.78;101804.72;1716433;83;21421;-77
2022/05/19 06:02:46;;;;;;;;;;;;;;;21.25;40.91;101806.87;1713743;83;20124;-74
2022/05/19 06:05:13;;;;;;;7.50;3.15;;;;;;;21.39;40.89;101801.86;1712363;82;20789;-72
2022/05/19 06:07:39;;;;;;;6.62;3.42;;;;;;;21.52;41.16;101801.74;1705629;82;21560;-74
2022/05/19 06:10:07;;;;;;;3.87;2.98;;;;;;;21.73;41.06;101800.83;1701404;83;21091;-78
2022/05/19 06:12:33;;;;;;;6.37;3.15;;;;;;;22.17;40.82;101795.36;1714973;83;20989;-75
2022/05/19 06:14:59;;;;;;;10.30;3.20;;;;;;;22.58;40.53;101805.75;1705559;83;21024;-76
2022/05/19 06:17:26;;;;;;;6.87;3.00;;;;;;;22.91;40.39;101801.50;1703358;83;21057;-79
2022/05/19 06:19:52;;;;;;;;;;;;;;;23.26;40.07;101812.11;1714809;83;21605;-78
2022/05/19 06:22:22;;;;;;;3.70;3.12;;;;;;;23.57;39.57;101811.42;1713406;83;20532;-78
2022/05/19 06:24:49;;;;;;;3.40;3.00;;;;;;;23.81;39.73;101801.38;1705486;83;21492;-78
2022/05/19 06:27:16;;;;;;;4.58;2.72;;;;;;;24.14;39.44;101802.20;1719196;82;21115;-79
2022/05/19 06:29:43;;;;;;;7.45;3.12;;;;;;;24.39;39.06;101803.94;1709045;83;21488;-84
2022/05/19 06:32:10;;;;;;;10.00;3.45;;;;;;;24.47;38.78;101802.63;1693447;83;21581;-78
2022/05/19 06:34:36;;;;;;;5.28;2.90;;;;;;;24.42;38.47;101801.59;1703418;83;21060;-78
2022/05/19 06:37:03;;;;;;;6.15;3.40;;;;;;;24.45;38.21;101796.58;1702499;83;21536;-78
2022/05/19 06:39:30;;;;;;;11.03;3.45;;;;;;;24.51;38.07;101795.77;1697142;83;21516;-79
2022/05/19 06:42:02;;;;;;;6.58;3.05;;;;;;;24.66;38.01;101793.59;1675131;83;21448;-79
2022/05/19 06:44:35;;;;;;;9.45;3.17;;;;;;;25.00;37.74;101793.86;1700367;83;21508;-79
2022/05/19 06:47:06;;;;;;;7.12;3.10;;;;;;;25.26;37.22;101790.17;1705841;82;20964;-79
2022/05/19 06:49:32;;;;;;;7.33;3.05;;;;;;;25.39;36.86;101785.86;1685974;83;21846;-79
2022/05/19 06:51:58;;;;;;;4.97;2.60;;;;;;;25.44;36.63;101785.11;1707829;83;20889;-79
2022/05/19 06:54:24;;;;;;;4.62;4.08;;;;;;;25.48;36.47;101782.63;1716184;82;20866;-79
2022/05/19 06:56:51;;;;;;;10.98;4.92;;;;;;;25.42;36.24;101778.20;1710242;82;20866;-79
2022/05/19 06:59:18;;;;;;;7.17;4.28;;;;;;;25.54;36.10;101778.29;1712457;82;21635;-78
2022/05/19 07:01:47;;;;;;;4.60;3.45;;;;;;;25.71;35.75;101774.18;1705080;83;21038;-78
2022/05/19 07:04:15;;;;;;;6.37;3.17;;;;;;;25.71;35.57;101775.98;1707280;83;21098;-79
2022/05/19 07:06:42;;;;;;;12.45;3.70;;;;;;;25.72;35.47;101775.03;1710802;83;21023;-79
2022/05/19 07:09:09;;;;;;;4.17;3.10;;;;;;;25.77;35.27;101775.61;1713798;83;21095;-79
2022/05/19 07:11:35;;;;;;;10.25;3.00;;;;;;;25.87;35.19;101775.42;1707869;83;21588;-79
2022/05/19 07:14:06;;;;;;;7.65;3.15;;;;;;;25.99;34.99;101770.69;1704328;82;21505;-79
2022/05/19 07:16:33;;;;;;;5.67;2.85;;;;;;;26.15;34.83;101771.88;1707374;83;21044;-80
2022/05/19 07:21:47;;;;;;;8.70;2.83;;;;;;;26.29;34.45;101759.92;1695210;83;21508;-79
2022/05/19 07:24:18;;;;;;;6.42;3.22;;;;;;;26.48;34.22;101762.29;1703365;83;21525;-79
2022/05/19 07:26:54;;;;;;;7.20;2.70;;;;;;;26.62;33.99;101761.36;1712950;83;21528;-79
2022/05/19 07:29:22;;;;;;;11.40;3.35;;;;;;;26.82;33.81;101761.39;1694408;83;21541;-78
2022/05/19 07:31:50;;;;;;;4.08;2.52;;;;;;;26.93;33.69;101761.05;1700540;82;21100;-78
2022/05/19 07:34:21;;;;;;;6.62;2.58;;;;;;;27.08;33.45;101764.97;1700801;83;21112;-78
2022/05/19 07:36:47;;;;;;;5.47;2.87;;;;;;;27.09;33.29;101763.55;1711792;83;21139;-78
2022/05/19 07:39:13;;;;;;;10.82;2.95;;;;;;;27.19;33.11;101770.41;1706384;83;21052;-78
2022/05/19 07:41:41;;;;;;;7.53;2.65;;;;;;;27.25;32.86;101762.88;1699112;82;27792;-78
2022/05/19 07:44:07;;;;;;;;;;;;;;;27.28;32.70;101767.98;1712365;83;21060;-79
2022/05/19 07:46:35;;;;;;;7.67;2.62;;;;;;;27.22;32.52;101759.11;1655076;85;20186;-79
2022/05/19 07:49:01;;;;;;;3.40;2.55;;;;;;;27.18;32.43;101763.40;1687706;83;21131;-79
2022/05/19 07:51:37;;;;;;;5.67;2.15;;;;;;;27.03;32.35;101763.47;1688652;83;21654;-79
2022/05/19 07:54:06;;;;;;;4.40;2.70;;;;;;;26.97;32.22;101763.06;1677767;84;21443;-79
2022/05/19 07:56:32;;;;;;;5.00;2.60;;;;;;;26.80;32.05;101762.81;1692921;84;21056;-79
2022/05/19 07:58:59;;;;;;;4.95;2.80;;;;;;;26.66;31.99;101759.73;1696379;83;21098;-79
2022/05/19 08:01:25;;;;;;;5.33;2.15;;;;;;;26.60;31.81;101760.61;1697230;84;21389;-79
2022/05/19 08:03:51;;;;;;;5.53;2.33;;;;;;;26.59;31.73;101758.91;1697566;84;20909;-78
2022/05/19 08:06:17;;;;;;;9.27;2.43;;;;;;;26.68;31.54;101752.53;1699307;83;20874;-77
2022/05/19 08:08:43;;;;;;;2.30;1.97;;;;;;;26.75;31.39;101751.65;1700284;83;20996;-77
2022/05/19 08:11:10;;;;;;;6.37;2.67;;;;;;;26.79;31.33;101750.50;1693544;83;21061;-77
2022/05/19 08:16:22;;;;;;;11.60;2.40;;;;;;;26.90;31.07;101749.79;1696630;83;40173;-78
2022/05/19 08:18:50;;;;;;;9.75;2.15;;;;;;;27.04;30.00;101745.27;1708345;83;21048;-78
2022/05/19 08:21:17;;;;;;;3.95;1.98;;;;;;;27.08;30.19;101737.09;1708648;83;21111;-78
2022/05/19 08:23:46;;;;;;;;;;;;;;;26.99;30.25;101737.27;1710622;83;21060;-78
2022/05/19 08:26:14;;;;;;;3.47;1.90;;;;;;;26.98;30.10;101732.43;1700229;83;20419;-78
2022/05/19 08:28:42;;;;;;;4.42;1.75;;;;;;;26.98;30.22;101720.48;1711014;83;20910;-78
2022/05/19 08:31:18;;;;;;;6.50;2.13;;;;;;;26.97;30.14;101722.77;1648205;82;5000792;-78
2022/05/19 08:33:47;;;;;;;8.65;1.90;;;;;;;26.95;30.07;101720.66;1728884;82;21368;-78
2022/05/19 08:36:13;;;;;;;13.80;2.00;;;;;;;26.95;30.02;101716.67;1728490;82;20881;-78
2022/05/19 08:38:41;;;;;;;7.92;2.17;;;;;;;26.99;30.01;101718.20;1724187;82;20886;-78
2022/05/19 08:41:25;;;;;;;9.28;1.80;;;;;;;27.03;29.99;101714.36;1720776;83;20945;-77
2022/05/19 08:44:05;;;;;;;6.10;2.17;;;;;;;27.11;29.90;101708.53;1727735;82;20908;-77
2022/05/19 08:46:38;;;;;;;3.40;1.80;;;;;;;27.23;29.90;101713.48;1725365;83;20866;-78
2022/05/19 08:49:38;;;;;;;8.33;2.08;;;;;;;27.30;29.74;101702.81;1727562;82;20921;-77
2022/05/19 08:52:17;;;;;;;2.83;1.92;;;;;;;27.16;29.60;101702.42;1723087;83;20964;-77
2022/05/19 08:54:48;;;;;;;4.85;2.22;;;;;;;27.13;29.57;101699.98;1727698;82;21000;-77
2022/05/19 08:57:25;;;;;;;6.72;2.02;;;;;;;27.12;29.51;101696.95;1684059;83;20921;-77
2022/05/19 09:00:10;;;;;;;8.68;2.72;;;;;;;27.06;29.55;101689.41;1693676;83;21003;-77
2022/05/19 09:02:44;;;;;;;4.25;1.72;;;;;;;27.06;29.44;101687.23;1724954;82;20985;-77
2022/05/19 09:05:41;;;;;;;2.77;1.80;;;;;;;26.93;29.47;101685.40;1727726;82;20929;-77
2022/05/19 09:08:32;;;;;;;6.55;1.85;;;;;;;26.92;29.40;101682.84;1717341;82;20953;-77
2022/05/19 09:11:14;;;;;;;3.45;1.80;;;;;;;26.89;29.33;101685.71;1722031;82;20909;-77
2022/05/19 09:13:53;;;;;;;5.65;1.85;;;;;;;26.73;29.31;101679.73;1705223;83;21095;-77
2022/05/19 09:16:31;;;;;;;3.70;2.10;;;;;;;26.58;29.35;101677.61;1705472;83;21104;-77
2022/05/19 09:19:03;;;;;;;;;;;;;;;26.47;29.30;101677.02;1704759;83;21140;-77
2022/05/19 09:21:29;;;;;;;4.58;2.30;;;;;;;26.30;29.43;101674.11;1690080;83;20198;-77
2022/05/19 09:23:56;;;;;;;6.90;2.33;;;;;;;26.21;29.29;101669.41;1725786;82;21111;-77
2022/05/19 09:26:39;;;;;;;6.58;2.17;;;;;;;26.08;29.34;101663.66;1714299;82;21079;-78
2022/05/19 09:29:11;;;;;;;5.05;2.10;;;;;;;26.00;29.33;101665.01;1706107;83;21512;-78
2022/05/19 09:31:51;;;;;;;3.90;2.05;;;;;;;25.80;29.32;101664.60;1701842;83;21068;-77
2022/05/19 09:34:19;;;;;;;5.05;2.10;;;;;;;25.65;29.37;101661.11;1711425;83;20890;-77
2022/05/19 09:37:02;;;;;;;3.20;1.67;;;;;;;25.54;29.42;101660.42;1701317;83;21108;-77
2022/05/19 09:39:35;;;;;;;4.90;1.87;;;;;;;25.50;29.48;101649.64;1702776;83;21119;-77
2022/05/19 09:42:12;;;;;;;8.53;2.60;;;;;;;25.49;29.56;101640.46;1691708;83;20964;-77
2022/05/19 09:44:50;;;;;;;4.70;1.87;;;;;;;25.38;29.56;101635.86;1702287;83;21132;-76
2022/05/19 09:47:28;;;;;;;5.30;1.85;;;;;;;25.35;29.60;101638.70;1706670;83;21314;-76
2022/05/19 09:50:18;;;;;;;6.45;2.25;;;;;;;25.31;29.66;101635.38;1706638;83;21410;-76
2022/05/19 09:52:46;;;;;;;9.85;1.90;;;;;;;25.27;29.64;101627.72;1703927;83;21009;-76
2022/05/19 09:55:16;;;;;;;5.42;1.80;;;;;;;25.26;29.77;101628.67;1699147;83;21099;-76
2022/05/19 09:57:57;;;;;;;10.53;1.92;;;;;;;25.31;29.75;101628.77;1690171;82;20925;-76
2022/05/19 10:00:50;;;;;;;7.10;1.85;;;;;;;25.30;29.68;101624.89;1706444;83;20927;-75
2022/05/19 10:03:37;;;;;;;3.62;1.85;;;;;;;25.25;29.76;101630.47;1704481;83;21382;-75
2022/05/19 10:06:08;;;;;;;3.37;1.90;;;;;;;25.26;29.76;101623.37;1699651;83;20906;-75
2022/05/19 10:08:39;;;;;;;3.75;2.00;;;;;;;25.26;29.71;101616.28;1712297;83;20886;-75
2022/05/19 10:11:21;;;;;;;3.08;1.40;;;;;;;25.21;29.65;101614.39;1680004;83;20956;-76
2022/05/19 10:13:56;;;;;;;3.20;1.60;;;;;;;25.20;29.64;101615.81;1706717;83;20937;-76
2022/05/19 10:16:56;;;;;;;2.72;1.70;;;;;;;25.25;29.63;101613.73;1700762;83;20937;-76
2022/05/19 10:20:04;;;;;;;2.47;1.40;;;;;;;25.25;29.64;101595.20;1701568;83;20918;-76
2022/05/19 10:23:09;;;;;;;4.08;1.98;;;;;;;25.33;29.66;101595.58;1698179;83;20957;-78
2022/05/19 10:25:45;;;;;;;;;;;;;;;25.35;29.49;101583.09;1710191;83;20886;-75
2022/05/19 10:31:48;;;;;;;5.58;1.42;;;;;;;25.32;29.59;101584.60;1733296;82;20955;-76
2022/05/19 10:35:00;;;;;;;5.75;1.90;;;;;;;25.42;29.64;101583.09;1735359;81;21398;-76
2022/05/19 10:37:35;;;;;;;2.72;1.52;;;;;;;25.48;29.42;101580.50;1729569;81;20960;-76
2022/05/19 10:40:30;;;;;;;9.23;2.15;;;;;;;25.53;29.47;101575.28;1733748;82;21397;-76
2022/05/19 10:43:16;;;;;;;3.33;1.70;;;;;;;25.53;29.45;101571.78;1732167;80;20932;-76
2022/05/19 10:45:50;;;;;;;1.57;1.40;;;;;;;25.60;29.44;101573.09;1735594;81;20884;-76
2022/05/19 10:48:31;;;;;;;5.85;1.55;;;;;;;25.67;29.37;101564.70;1735907;82;20944;-76
2022/05/19 10:51:17;;;;;;;8.43;1.65;;;;;;;25.74;29.30;101570.45;1735887;82;20960;-76
2022/05/19 10:54:17;;;;;;;7.92;1.80;;;;;;;25.76;29.30;101563.73;1734595;82;20931;-75
2022/05/19 10:57:10;;;;;;;5.10;1.50;;;;;;;25.80;29.32;101561.26;1729811;82;22160;-76
2022/05/19 11:00:08;;;;;;;4.65;1.60;;;;;;;25.85;29.23;101552.06;1674342;85;21340;-75
2022/05/19 11:03:20;;;;;;;3.27;1.45;;;;;;;25.88;29.14;101544.39;1636294;84;21169;-75
2022/05/19 11:06:23;;;;;;;4.67;1.40;;;;;;;25.90;29.13;101544.66;1675771;84;21098;-76
2022/05/19 11:09:16;;;;;;;3.42;1.40;;;;;;;26.01;29.10;101547.91;1662567;85;21094;-76
2022/05/19 11:12:11;;;;;;;2.65;1.45;;;;;;;26.05;29.06;101538.80;1658136;84;21094;-76
2022/05/19 11:15:11;;;;;;;3.62;1.67;;;;;;;26.08;29.03;101539.92;1660524;84;21557;-76
2022/05/19 11:18:05;;;;;;;3.33;1.47;;;;;;;26.06;29.23;101524.59;1675187;84;21096;-76
2022/05/19 11:21:07;;;;;;;5.20;1.45;;;;;;;26.11;29.04;101530.44;1675899;84;21135;-76
2022/05/19 11:24:07;;;;;;;3.50;1.30;;;;;;;26.12;28.98;101530.81;1676096;85;21020;-76
2022/05/19 11:26:42;;;;;;;5.80;1.47;;;;;;;26.16;28.97;101519.53;1677879;84;21397;-76
2022/05/19 11:29:51;;;;;;;2.92;1.70;;;;;;;26.21;29.03;101516.95;1661408;84;21113;-76
2022/05/19 11:32:31;;;;;;;3.83;1.95;;;;;;;26.20;29.18;101498.02;1731800;81;20992;-75
2022/05/19 11:35:22;;;;;;;9.83;1.60;;;;;;;26.20;29.18;101498.02;1727255;81;21063;-76
2022/05/19 11:38:06;;;;;;;4.40;1.98;;;;;;;26.28;29.11;101504.98;1733800;81;21063;-76
2022/05/19 11:41:14;;;;;;;6.37;2.10;;;;;;;26.26;29.12;101487.47;1727793;82;21075;-76
2022/05/19 11:43:54;;;;;;;6.62;1.90;;;;;;;26.37;29.12;101502.21;1735778;81;20905;-76
2022/05/19 11:46:26;;;;;;;6.62;2.15;;;;;;;26.42;29.19;101501.90;1733375;81;20937;-79
2022/05/19 11:55:19;;;;;;;4.30;1.77;;;;;;;26.60;29.21;101495.30;1693706;84;21419;-79
2022/05/19 11:58:11;;;;;;;4.87;2.25;;;;;;;26.65;29.21;101491.37;1715138;82;20917;-80
2022/05/19 12:00:43;;;;;;;2.95;1.75;;;;;;;26.63;29.22;101495.09;1712802;83;21497;-80
2022/05/19 12:03:25;;;;;;;2.70;1.70;;;;;;;26.65;29.21;101483.89;1715001;83;20965;-79
2022/05/19 12:06:03;;;;;;;2.60;1.62;;;;;;;26.67;29.38;101485.48;1706745;83;20913;-79
2022/05/19 12:08:46;;;;;;;2.15;1.45;;;;;;;26.59;28.99;101481.66;1708805;83;20937;-78
2022/05/19 12:11:48;;;;;;;4.40;1.65;;;;;;;26.59;28.99;101481.66;1654100;86;20955;-78